< < Back
Terminal Aerodrome Forecast


Current Version              Previous Versions:   1  2  3  4  5  6  7  8  9  

Terminal Aerodrome Forecast

410
FTUS44 KBMX 252200 AAA
TAFTCL
TAF AMD
KTCL 252244Z 2523/2618 22012G23KT P6SM SHRA VCTS SCT045CB BKN080
      OVC090
     FM260000 28008KT P6SM SCT025 OVC080
      TEMPO 2601/2603 6SM SHRA BKN045 OVC070
     FM260800 30009G15KT 6SM BR OVC025=

Latest METAR

719
SAUS70 KWBC 260800 RRG
MTRTCL
METAR KTCL 260753Z AUTO 30010KT 10SM OVC034 07/02 A2991 RMK AO2 SLP127
T00720022


USA.gov is the U.S. government's official web portal to all federal, state and local government web resources and services.